Time;durP1;ratioP1;P1;durP2;ratioP2;P2;SDS_P1;SDS_P2;PMS_P1;PMS_P2;Temp;Humidity;BMP_temperature;BMP_pressure;BME280_temperature;BME280_humidity;BME280_pressure;Samples;Min_cycle;Max_cycle;Signal;HPM_P1;HPM_P2
2022/05/18 00:03:25;;;;;;;11.70;5.75;;;;;;;;;;10359423;28;20324;-76
2022/05/18 00:08:28;;;;;;;12.70;6.22;;;;;;;;;;10342618;28;20446;-77
2022/05/18 00:13:44;;;;;;;12.65;5.57;;;;;;;;;;10361872;28;20038;-76
2022/05/18 00:18:49;;;;;;;10.70;5.72;;;;;;;;;;10333888;28;20156;-77
2022/05/18 00:23:52;;;;;;;12.38;5.68;;;;;;;;;;10327419;28;20041;-76
2022/05/18 00:28:55;;;;;;;12.43;5.93;;;;;;;;;;10354961;28;20102;-77
2022/05/18 00:33:59;;;;;;;12.45;5.65;;;;;;;;;;10334042;28;20161;-77
2022/05/18 00:39:02;;;;;;;12.43;5.20;;;;;;;;;;10356735;28;20038;-76
2022/05/18 00:44:05;;;;;;;13.37;5.67;;;;;;;;;;10354092;28;20636;-78
2022/05/18 00:49:09;;;;;;;16.50;6.88;;;;;;;;;;10359182;28;20144;-77
2022/05/18 00:54:14;;;;;;;13.27;5.32;;;;;;;;;;10360231;28;20037;-77
2022/05/18 00:59:26;;;;;;;12.05;5.28;;;;;;;;;;10341498;28;20100;-76
2022/05/18 01:04:30;;;;;;;11.55;5.50;;;;;;;;;;10352838;28;20048;-77
2022/05/18 01:09:35;;;;;;;10.40;5.78;;;;;;;;;;10327593;28;20136;-76
2022/05/18 01:14:44;;;;;;;12.55;5.55;;;;;;;;;;10346267;28;20096;-75
2022/05/18 01:19:50;;;;;;;11.25;5.50;;;;;;;;;;10354126;28;20382;-77
2022/05/18 01:24:59;;;;;;;9.98;4.95;;;;;;;;;;10349614;28;20289;-76
2022/05/18 01:30:19;;;;;;;10.75;5.43;;;;;;;;;;10340856;28;20037;-78
2022/05/18 01:35:33;;;;;;;11.85;5.07;;;;;;;;;;10358846;28;20053;-75
2022/05/18 01:40:40;;;;;;;12.80;5.95;;;;;;;;;;10320774;28;20205;-77
2022/05/18 01:45:44;;;;;;;13.48;5.70;;;;;;;;;;10345475;28;20039;-76
2022/05/18 01:50:48;;;;;;;12.68;5.93;;;;;;;;;;10357058;28;20042;-77
2022/05/18 01:55:52;;;;;;;12.38;5.45;;;;;;;;;;10358847;28;20598;-75
2022/05/18 02:00:56;;;;;;;14.05;5.90;;;;;;;;;;10348692;28;20049;-76
2022/05/18 02:05:59;;;;;;;12.50;5.78;;;;;;;;;;10337654;28;20057;-77
2022/05/18 02:11:02;;;;;;;11.88;6.10;;;;;;;;;;10368191;28;20034;-75
2022/05/18 02:16:07;;;;;;;13.00;6.20;;;;;;;;;;10342316;28;20045;-74
2022/05/18 02:21:11;;;;;;;12.90;6.25;;;;;;;;;;10362823;28;21251;-77
2022/05/18 02:26:14;;;;;;;;;;;;;;;;;;10340405;28;20065;-76
2022/05/18 02:31:18;;;;;;;12.10;6.10;;;;;;;;;;10342532;28;20425;-78
2022/05/18 02:36:21;;;;;;;16.52;6.63;;;;;;;;;;10363270;28;20068;-78
2022/05/18 02:41:24;;;;;;;15.55;6.93;;;;;;;;;;10344991;28;20034;-75
2022/05/18 02:46:29;;;;;;;13.68;7.15;;;;;;;;;;10347765;28;20428;-77
2022/05/18 02:51:32;;;;;;;16.35;7.05;;;;;;;;;;10363315;28;20398;-74
2022/05/18 02:56:35;;;;;;;15.32;6.97;;;;;;;;;;10345288;28;20077;-74
2022/05/18 03:01:39;;;;;;;14.13;6.65;;;;;;;;;;10344123;28;20038;-77
2022/05/18 03:06:42;;;;;;;13.43;6.72;;;;;;;;;;10361573;28;20041;-76
2022/05/18 03:11:46;;;;;;;13.67;6.90;;;;;;;;;;10362759;28;20210;-77
2022/05/18 03:16:52;;;;;;;14.23;6.70;;;;;;;;;;10352830;28;20037;-76
2022/05/18 03:27:15;;;;;;;13.60;6.07;;;;;;;;;;10349136;28;20038;-76
2022/05/18 03:32:22;;;;;;;15.60;7.68;;;;;;;;;;10361662;28;20107;-76
2022/05/18 03:37:25;;;;;;;14.30;6.65;;;;;;;;;;10358665;28;20499;-77
2022/05/18 03:42:27;;;;;;;14.70;6.57;;;;;;;;;;10356371;28;20045;-76
2022/05/18 03:47:32;;;;;;;14.80;6.55;;;;;;;;;;10359989;28;20060;-77
2022/05/18 03:52:35;;;;;;;13.70;6.45;;;;;;;;;;10359083;28;20077;-76
2022/05/18 03:57:38;;;;;;;13.00;6.88;;;;;;;;;;10360964;28;20061;-77
2022/05/18 04:02:42;;;;;;;16.80;7.18;;;;;;;;;;10343761;28;20089;-78
2022/05/18 04:07:45;;;;;;;12.77;6.55;;;;;;;;;;10341387;28;20054;-76
2022/05/18 04:12:49;;;;;;;12.73;6.15;;;;;;;;;;10340579;28;20038;-77
2022/05/18 04:17:54;;;;;;;14.85;5.95;;;;;;;;;;10355976;28;20620;-77
2022/05/18 04:22:58;;;;;;;16.42;6.60;;;;;;;;;;10353750;28;20081;-76
2022/05/18 04:28:01;;;;;;;11.52;5.22;;;;;;;;;;10360294;28;20042;-76
2022/05/18 04:33:05;;;;;;;10.75;5.53;;;;;;;;;;10356860;28;20026;-74
2022/05/18 04:38:08;;;;;;;8.45;4.55;;;;;;;;;;10356426;28;20662;-78
2022/05/18 04:43:11;;;;;;;12.40;5.90;;;;;;;;;;10363616;28;20112;-76
2022/05/18 04:48:17;;;;;;;10.57;5.80;;;;;;;;;;10359278;28;20091;-78
2022/05/18 04:53:20;;;;;;;10.48;5.20;;;;;;;;;;10337729;28;20038;-78
2022/05/18 04:58:23;;;;;;;16.10;5.80;;;;;;;;;;10354775;28;20120;-77
2022/05/18 05:03:27;;;;;;;;;;;;;;;;;;10333068;28;20061;-76
2022/05/18 05:08:37;;;;;;;12.13;6.30;;;;;;;;;;10353321;28;19961;-76
2022/05/18 05:13:40;;;;;;;13.90;6.90;;;;;;;;;;10339122;28;20445;-77
2022/05/18 05:18:43;;;;;;;15.60;8.30;;;;;;;;;;10356089;28;20046;-78
2022/05/18 05:23:47;;;;;;;14.07;7.40;;;;;;;;;;10358413;28;20107;-76
2022/05/18 05:28:50;;;;;;;13.63;7.00;;;;;;;;;;10350575;28;20062;-76
2022/05/18 05:33:53;;;;;;;16.38;7.32;;;;;;;;;;10358893;28;20050;-77
2022/05/18 05:38:57;;;;;;;18.27;7.20;;;;;;;;;;10333615;28;20162;-76
2022/05/18 05:44:00;;;;;;;13.05;6.50;;;;;;;;;;10360283;28;20033;-78
2022/05/18 05:49:04;;;;;;;10.93;5.80;;;;;;;;;;10361186;28;20038;-70
2022/05/18 05:54:08;;;;;;;11.67;5.23;;;;;;;;;;10350989;28;20034;-74
2022/05/18 05:59:11;;;;;;;10.32;5.30;;;;;;;;;;10348510;28;20045;-76
2022/05/18 06:04:14;;;;;;;10.17;5.17;;;;;;;;;;10348249;28;20045;-77
2022/05/18 06:09:17;;;;;;;;;;;;;;;;;;10348281;28;20476;-77
2022/05/18 06:14:21;;;;;;;8.52;3.60;;;;;;;;;;10343628;28;19972;-75
2022/05/18 06:19:24;;;;;;;10.20;5.03;;;;;;;;;;10364358;28;20046;-76
2022/05/18 06:24:27;;;;;;;8.23;4.78;;;;;;;;;;10342585;28;20120;-76
2022/05/18 06:29:31;;;;;;;13.82;4.82;;;;;;;;;;10348281;28;20059;-74
2022/05/18 06:34:35;;;;;;;11.48;5.30;;;;;;;;;;10353736;28;20537;-77
2022/05/18 06:39:38;;;;;;;13.00;5.30;;;;;;;;;;10342422;28;20038;-76
2022/05/18 06:44:42;;;;;;;8.70;5.43;;;;;;;;;;10360901;28;20434;-77
2022/05/18 06:49:47;;;;;;;10.05;5.28;;;;;;;;;;10364530;28;20042;-77
2022/05/18 06:54:53;;;;;;;7.40;3.15;;;;;;;;;;10358721;28;20501;-77
2022/05/18 06:59:57;;;;;;;8.02;4.10;;;;;;;;;;10339468;28;20498;-76
2022/05/18 07:05:01;;;;;;;11.30;5.25;;;;;;;;;;10361433;28;20034;-75
2022/05/18 07:10:04;;;;;;;8.55;4.53;;;;;;;;;;10358882;28;20044;-77
2022/05/18 07:15:09;;;;;;;11.07;5.43;;;;;;;;;;10349795;28;20071;-77
2022/05/18 07:20:12;;;;;;;6.45;3.35;;;;;;;;;;10364643;28;20046;-73
2022/05/18 07:25:19;;;;;;;7.40;4.20;;;;;;;;;;10368944;28;20045;-73
2022/05/18 07:30:24;;;;;;;7.95;4.13;;;;;;;;;;10368428;28;20571;-75
2022/05/18 07:35:28;;;;;;;8.05;4.28;;;;;;;;;;10342462;28;20634;-74
2022/05/18 07:40:33;;;;;;;8.32;4.40;;;;;;;;;;10361302;28;20050;-76
2022/05/18 07:45:37;;;;;;;7.40;3.00;;;;;;;;;;10363007;28;20072;-78
2022/05/18 07:50:40;;;;;;;5.75;3.83;;;;;;;;;;10334669;28;20097;-77
2022/05/18 07:55:43;;;;;;;8.35;5.15;;;;;;;;;;10367295;28;20533;-75
2022/05/18 08:00:47;;;;;;;8.70;5.50;;;;;;;;;;10344048;28;20505;-76
2022/05/18 08:05:50;;;;;;;9.80;5.60;;;;;;;;;;10357901;28;20038;-77
2022/05/18 08:16:14;;;;;;;7.67;5.50;;;;;;;;;;10365986;28;20029;-77
2022/05/18 08:21:17;;;;;;;8.13;5.07;;;;;;;;;;10346241;28;20613;-77
2022/05/18 08:26:20;;;;;;;9.50;4.85;;;;;;;;;;10349070;28;20297;-77
2022/05/18 08:31:25;;;;;;;6.43;4.57;;;;;;;;;;10355396;28;20117;-77
2022/05/18 08:36:30;;;;;;;6.93;5.38;;;;;;;;;;10364498;28;20038;-76
2022/05/18 08:41:36;;;;;;;6.32;5.28;;;;;;;;;;10355777;28;20121;-73
2022/05/18 08:46:45;;;;;;;7.55;5.03;;;;;;;;;;10355357;28;20099;-75
2022/05/18 08:51:57;;;;;;;7.53;4.97;;;;;;;;;;10343738;28;21313;-77
2022/05/18 08:57:01;;;;;;;6.75;4.47;;;;;;;;;;10354105;28;20041;-76
2022/05/18 09:02:11;;;;;;;8.82;5.03;;;;;;;;;;10358991;28;20049;-77
2022/05/18 09:07:16;;;;;;;5.43;4.57;;;;;;;;;;10373204;28;20040;-74
2022/05/18 09:12:19;;;;;;;6.07;4.63;;;;;;;;;;10350100;28;20347;-76
2022/05/18 09:17:27;;;;;;;6.22;4.72;;;;;;;;;;10371956;28;20030;-77
2022/05/18 09:22:36;;;;;;;5.65;4.15;;;;;;;;;;10370688;28;20045;-76
2022/05/18 09:27:56;;;;;;;7.82;4.20;;;;;;;;;;10372592;28;20058;-76
2022/05/18 09:33:12;;;;;;;4.78;4.20;;;;;;;;;;10359737;28;20046;-76
2022/05/18 09:38:18;;;;;;;7.72;4.15;;;;;;;;;;10367216;28;20417;-77
2022/05/18 09:43:23;;;;;;;4.05;3.58;;;;;;;;;;10367108;28;20066;-77
2022/05/18 09:48:32;;;;;;;3.90;3.50;;;;;;;;;;10339058;28;20112;-78
2022/05/18 09:53:35;;;;;;;4.40;3.75;;;;;;;;;;10349935;28;20034;-75
2022/05/18 09:58:40;;;;;;;5.60;3.72;;;;;;;;;;10367533;28;20152;-76
2022/05/18 10:09:27;;;;;;;4.90;3.70;;;;;;;;;;10343641;28;20073;-76
2022/05/18 10:14:32;;;;;;;4.47;3.70;;;;;;;;;;10336663;28;20380;-75
2022/05/18 10:19:43;;;;;;;7.72;4.28;;;;;;;;;;10344161;28;20042;-76
2022/05/18 10:24:47;;;;;;;5.95;4.28;;;;;;;;;;10345692;28;20046;-75
2022/05/18 10:29:52;;;;;;;5.13;3.97;;;;;;;;;;10343140;28;20077;-76
2022/05/18 10:34:56;;;;;;;5.82;3.65;;;;;;;;;;10337956;28;20038;-76
2022/05/18 10:40:02;;;;;;;4.82;3.35;;;;;;;;;;10366048;28;20474;-75
2022/05/18 10:45:23;;;;;;;3.43;2.60;;;;;;;;;;10352424;28;20042;-76
2022/05/18 10:50:32;;;;;;;4.72;3.30;;;;;;;;;;10348994;28;20120;-76
2022/05/18 10:55:35;;;;;;;6.18;3.88;;;;;;;;;;10360000;28;20447;-75
2022/05/18 11:00:44;;;;;;;4.78;3.80;;;;;;;;;;10351873;28;20140;-77
2022/05/18 11:05:51;;;;;;;6.55;3.88;;;;;;;;;;10333982;28;20124;-74
2022/05/18 11:10:55;;;;;;;8.07;4.20;;;;;;;;;;10369130;28;20033;-76
2022/05/18 11:16:02;;;;;;;7.15;3.92;;;;;;;;;;10359559;28;20042;-77
2022/05/18 11:21:15;;;;;;;6.10;3.90;;;;;;;;;;10357382;28;20088;-77
2022/05/18 11:26:24;;;;;;;5.80;3.85;;;;;;;;;;10355352;28;20034;-76
2022/05/18 11:31:52;;;;;;;5.30;4.07;;;;;;;;;;10354084;28;20494;-77
2022/05/18 11:37:02;;;;;;;5.30;4.47;;;;;;;;;;10337105;28;20522;-76
2022/05/18 11:42:14;;;;;;;6.13;4.43;;;;;;;;;;10347779;28;20328;-76
2022/05/18 11:47:24;;;;;;;7.45;4.15;;;;;;;;;;10333786;28;20674;-76
2022/05/18 11:52:39;;;;;;;5.45;3.83;;;;;;;;;;10340022;28;20083;-76
2022/05/18 11:57:45;;;;;;;6.28;4.07;;;;;;;;;;10361803;28;20042;-76
2022/05/18 12:03:03;;;;;;;5.95;4.10;;;;;;;;;;10362701;28;20092;-77
2022/05/18 12:08:27;;;;;;;6.25;4.30;;;;;;;;;;10358342;28;20030;-77
2022/05/18 12:13:36;;;;;;;5.13;3.85;;;;;;;;;;10345286;28;20060;-77
2022/05/18 12:18:42;;;;;;;6.18;4.13;;;;;;;;;;10348801;28;20041;-77
2022/05/18 12:23:49;;;;;;;5.95;4.15;;;;;;;;;;10360802;28;20502;-77
2022/05/18 12:28:52;;;;;;;4.68;3.85;;;;;;;;;;10336547;28;20046;-74
2022/05/18 12:34:01;;;;;;;5.95;3.78;;;;;;;;;;10346951;28;20132;-76
2022/05/18 12:39:12;;;;;;;5.10;4.10;;;;;;;;;;10362185;28;20034;-77
2022/05/18 12:44:23;;;;;;;5.43;3.83;;;;;;;;;;10369549;28;20076;-74
2022/05/18 12:49:30;;;;;;;6.95;3.80;;;;;;;;;;10353393;28;20091;-77
2022/05/18 12:54:42;;;;;;;5.75;3.70;;;;;;;;;;10360778;28;20041;-77
2022/05/18 12:59:46;;;;;;;7.43;3.85;;;;;;;;;;10340167;28;20034;-76
2022/05/18 13:04:49;;;;;;;5.80;3.30;;;;;;;;;;10366380;28;20046;-77
2022/05/18 13:10:00;;;;;;;5.45;3.10;;;;;;;;;;10354700;28;20046;-76
2022/05/18 13:15:08;;;;;;;7.75;3.38;;;;;;;;;;10360371;28;20059;-76
2022/05/18 13:20:30;;;;;;;3.90;2.50;;;;;;;;;;10364504;28;20111;-76
2022/05/18 13:25:36;;;;;;;4.85;2.75;;;;;;;;;;10360033;28;20041;-74
2022/05/18 13:30:40;;;;;;;5.80;2.60;;;;;;;;;;10366282;28;20046;-76
2022/05/18 13:36:03;;;;;;;4.32;2.42;;;;;;;;;;10357460;28;20143;-77
2022/05/18 13:41:09;;;;;;;3.28;2.10;;;;;;;;;;10340907;28;20489;-77
2022/05/18 13:46:14;;;;;;;5.57;2.38;;;;;;;;;;10355171;28;20369;-76
2022/05/18 13:51:19;;;;;;;2.95;2.00;;;;;;;;;;10340626;28;20046;-76
2022/05/18 13:56:27;;;;;;;8.70;5.10;;;;;;;;;;10364480;28;20049;-77
2022/05/18 14:01:32;;;;;;;3.75;2.30;;;;;;;;;;10346109;28;20499;-77
2022/05/18 14:06:35;;;;;;;5.45;2.00;;;;;;;;;;10356366;28;20129;-76
2022/05/18 14:11:48;;;;;;;4.63;2.78;;;;;;;;;;10345997;28;20361;-76
2022/05/18 14:16:56;;;;;;;2.65;1.90;;;;;;;;;;10359125;28;20564;-76
2022/05/18 14:22:20;;;;;;;5.25;2.33;;;;;;;;;;10342997;28;20294;-77
2022/05/18 14:27:29;;;;;;;3.60;2.40;;;;;;;;;;10343392;28;20061;-76
2022/05/18 14:32:36;;;;;;;8.32;2.78;;;;;;;;;;10362204;28;20403;-76
2022/05/18 14:37:42;;;;;;;3.47;2.63;;;;;;;;;;10361398;28;20488;-75
2022/05/18 14:42:48;;;;;;;4.22;2.50;;;;;;;;;;10342916;28;20121;-76
2022/05/18 14:47:54;;;;;;;6.13;3.67;;;;;;;;;;10361420;28;20129;-76
2022/05/18 14:53:01;;;;;;;7.50;3.92;;;;;;;;;;10352123;28;20033;-74
2022/05/18 14:58:05;;;;;;;7.28;2.47;;;;;;;;;;10357169;28;20417;-77
2022/05/18 15:03:09;;;;;;;4.88;2.80;;;;;;;;;;10361975;28;21384;-78
2022/05/18 15:08:15;;;;;;;6.55;3.15;;;;;;;;;;10359252;28;20061;-77
2022/05/18 15:13:20;;;;;;;3.90;2.20;;;;;;;;;;10335750;28;20125;-76
2022/05/18 15:18:28;;;;;;;4.43;2.22;;;;;;;;;;10338262;28;20038;-76
2022/05/18 15:23:34;;;;;;;6.65;2.25;;;;;;;;;;10367161;28;20041;-76
2022/05/18 15:28:40;;;;;;;4.57;2.58;;;;;;;;;;10363850;28;20104;-74
2022/05/18 15:33:44;;;;;;;3.60;2.00;;;;;;;;;;10340458;28;20495;-77
2022/05/18 15:38:49;;;;;;;4.68;2.45;;;;;;;;;;10352919;28;20084;-77
2022/05/18 15:43:53;;;;;;;2.22;2.00;;;;;;;;;;10356100;28;20080;-78
2022/05/18 15:48:57;;;;;;;8.65;2.15;;;;;;;;;;10359308;28;20068;-78
2022/05/18 15:54:01;;;;;;;4.07;2.30;;;;;;;;;;10346907;28;20069;-73
2022/05/18 15:59:05;;;;;;;3.33;1.80;;;;;;;;;;10341771;28;20042;-79
2022/05/18 16:04:08;;;;;;;4.68;2.17;;;;;;;;;;10357854;28;20508;-75
2022/05/18 16:09:11;;;;;;;4.72;2.20;;;;;;;;;;10356349;28;20026;-77
2022/05/18 16:14:16;;;;;;;3.65;1.90;;;;;;;;;;10348734;28;20100;-75
2022/05/18 16:19:19;;;;;;;3.45;2.00;;;;;;;;;;10359047;28;20116;-77
2022/05/18 16:24:27;;;;;;;2.60;1.90;;;;;;;;;;10335155;28;20130;-76
2022/05/18 16:29:32;;;;;;;4.07;2.10;;;;;;;;;;10357441;28;20180;-78
2022/05/18 16:34:36;;;;;;;6.57;2.30;;;;;;;;;;10331843;28;20045;-76
2022/05/18 16:39:39;;;;;;;4.95;1.90;;;;;;;;;;10335191;28;20073;-75
2022/05/18 16:44:42;;;;;;;;;;;;;;;;;;10351172;28;20042;-76
2022/05/18 16:49:46;;;;;;;3.80;2.20;;;;;;;;;;10339407;28;20040;-77
2022/05/18 16:54:49;;;;;;;2.83;1.88;;;;;;;;;;10354999;28;20123;-77
2022/05/18 16:59:52;;;;;;;5.03;1.75;;;;;;;;;;10358428;28;20058;-76
2022/05/18 17:10:17;;;;;;;3.65;1.80;;;;;;;;;;10351634;28;19952;-77
2022/05/18 17:15:20;;;;;;;2.05;1.70;;;;;;;;;;10357771;28;20401;-76
2022/05/18 17:20:23;;;;;;;5.07;1.83;;;;;;;;;;10364453;28;20050;-76
2022/05/18 17:25:27;;;;;;;5.50;2.05;;;;;;;;;;10333754;28;20072;-76
2022/05/18 17:30:32;;;;;;;4.15;1.50;;;;;;;;;;10344429;28;20139;-76
2022/05/18 17:35:38;;;;;;;3.95;1.98;;;;;;;;;;10345187;28;20038;-75
2022/05/18 17:40:43;;;;;;;3.85;2.13;;;;;;;;;;10359580;28;20541;-77
2022/05/18 17:45:46;;;;;;;3.17;1.88;;;;;;;;;;10343663;28;20415;-76
2022/05/18 17:50:49;;;;;;;2.08;1.50;;;;;;;;;;10364309;28;20131;-76
2022/05/18 17:55:54;;;;;;;3.60;1.70;;;;;;;;;;10358854;28;20120;-78
2022/05/18 18:00:57;;;;;;;5.22;2.00;;;;;;;;;;10347695;28;20038;-78
2022/05/18 18:06:01;;;;;;;2.85;2.10;;;;;;;;;;10344680;28;20040;-75
2022/05/18 18:11:05;;;;;;;3.55;1.92;;;;;;;;;;10357991;28;20089;-75
2022/05/18 18:16:08;;;;;;;3.15;1.80;;;;;;;;;;10355378;28;20311;-78
2022/05/18 18:21:10;;;;;;;4.47;1.77;;;;;;;;;;10347048;28;20042;-76
2022/05/18 18:26:17;;;;;;;3.33;1.90;;;;;;;;;;10357148;28;20041;-77
2022/05/18 18:31:19;;;;;;;4.45;1.90;;;;;;;;;;10346304;28;20132;-76
2022/05/18 18:36:25;;;;;;;4.00;1.88;;;;;;;;;;10368517;28;20517;-73
2022/05/18 18:41:30;;;;;;;4.55;1.75;;;;;;;;;;10347222;28;20561;-76
2022/05/18 18:46:35;;;;;;;5.43;2.08;;;;;;;;;;10365385;28;20119;-76
2022/05/18 18:57:01;;;;;;;4.65;1.67;;;;;;;;;;10343928;28;20070;-76
2022/05/18 19:02:04;;;;;;;4.22;1.83;;;;;;;;;;10370188;28;20041;-75
2022/05/18 19:07:09;;;;;;;6.88;1.98;;;;;;;;;;10339717;28;20049;-77
2022/05/18 19:12:16;;;;;;;4.47;2.55;;;;;;;;;;10356739;28;20486;-76
2022/05/18 19:17:19;;;;;;;4.00;1.92;;;;;;;;;;10342350;28;20513;-76
2022/05/18 19:22:25;;;;;;;6.60;2.08;;;;;;;;;;10365547;28;20351;-75
2022/05/18 19:27:29;;;;;;;4.00;1.95;;;;;;;;;;10362286;28;20362;-72
2022/05/18 19:32:32;;;;;;;6.93;1.85;;;;;;;;;;10353721;28;20038;-72
2022/05/18 19:37:35;;;;;;;3.50;2.10;;;;;;;;;;10342205;28;20358;-73
2022/05/18 19:42:42;;;;;;;4.32;1.90;;;;;;;;;;10338035;28;20654;-73
2022/05/18 19:47:47;;;;;;;7.70;3.30;;;;;;;;;;10354965;28;20053;-74
2022/05/18 19:52:50;;;;;;;3.70;2.00;;;;;;;;;;10361333;28;20065;-73
2022/05/18 19:57:56;;;;;;;5.47;2.10;;;;;;;;;;10359660;28;20058;-75
2022/05/18 20:02:58;;;;;;;3.78;2.00;;;;;;;;;;10342601;28;20525;-74
2022/05/18 20:08:01;;;;;;;3.60;2.00;;;;;;;;;;10360077;28;20462;-73
2022/05/18 20:13:06;;;;;;;4.90;2.05;;;;;;;;;;10353728;28;20041;-72
2022/05/18 20:18:09;;;;;;;3.75;2.30;;;;;;;;;;10355414;28;20033;-72
2022/05/18 20:23:12;;;;;;;4.97;2.10;;;;;;;;;;10356783;28;20041;-73
2022/05/18 20:28:18;;;;;;;3.33;2.30;;;;;;;;;;10359466;28;20056;-73
2022/05/18 20:33:21;;;;;;;5.00;2.10;;;;;;;;;;10354733;28;20085;-74
2022/05/18 20:38:24;;;;;;;3.78;2.35;;;;;;;;;;10352083;28;20062;-70
2022/05/18 20:43:29;;;;;;;3.00;2.40;;;;;;;;;;10363859;28;20449;-71
2022/05/18 20:48:32;;;;;;;4.18;2.65;;;;;;;;;;10341918;28;20072;-73
2022/05/18 20:53:35;;;;;;;5.70;2.58;;;;;;;;;;10341383;28;20077;-74
2022/05/18 20:58:40;;;;;;;9.07;2.50;;;;;;;;;;10353174;28;20065;-74
2022/05/18 21:03:42;;;;;;;4.03;2.33;;;;;;;;;;10371764;28;20049;-76
2022/05/18 21:08:45;;;;;;;4.03;2.53;;;;;;;;;;10373837;28;20045;-76
2022/05/18 21:13:49;;;;;;;4.13;2.50;;;;;;;;;;10354389;28;20080;-75
2022/05/18 21:18:52;;;;;;;3.92;1.85;;;;;;;;;;10366829;28;20042;-76
2022/05/18 21:23:55;;;;;;;4.40;2.10;;;;;;;;;;10363441;28;20136;-75
2022/05/18 21:28:59;;;;;;;4.77;1.80;;;;;;;;;;10360941;28;20419;-75
2022/05/18 21:34:02;;;;;;;6.85;2.70;;;;;;;;;;10357740;28;20052;-75
2022/05/18 21:39:04;;;;;;;4.37;2.47;;;;;;;;;;10355244;28;20438;-74
2022/05/18 21:44:11;;;;;;;4.43;3.00;;;;;;;;;;10351145;28;20091;-75
2022/05/18 21:49:18;;;;;;;6.75;3.20;;;;;;;;;;10350204;28;20135;-76
2022/05/18 21:54:21;;;;;;;5.77;2.80;;;;;;;;;;10373015;28;20083;-76
2022/05/18 21:59:24;;;;;;;;;;;;;;;;;;10371495;28;20037;-75
2022/05/18 22:04:29;;;;;;;5.13;2.60;;;;;;;;;;10373009;28;20020;-75
2022/05/18 22:09:33;;;;;;;3.30;2.50;;;;;;;;;;10367648;28;20034;-74
2022/05/18 22:14:36;;;;;;;4.05;2.55;;;;;;;;;;10360677;28;20080;-76
2022/05/18 22:19:40;;;;;;;4.53;2.50;;;;;;;;;;10359434;28;20112;-76
2022/05/18 22:24:43;;;;;;;5.60;2.70;;;;;;;;;;10369052;28;20042;-73
2022/05/18 22:29:50;;;;;;;3.83;2.67;;;;;;;;;;10363266;28;20495;-75
2022/05/18 22:34:54;;;;;;;5.68;2.65;;;;;;;;;;10372561;28;20038;-76
2022/05/18 22:39:59;;;;;;;7.28;3.13;;;;;;;;;;10364461;28;20520;-77
2022/05/18 22:45:02;;;;;;;4.35;2.47;;;;;;;;;;10362341;28;20038;-76
2022/05/18 22:50:07;;;;;;;5.13;2.72;;;;;;;;;;10345693;28;20030;-77
2022/05/18 22:55:11;;;;;;;9.30;3.47;;;;;;;;;;10362019;28;20117;-76
2022/05/18 23:00:15;;;;;;;6.03;3.03;;;;;;;;;;10363344;28;20105;-76
2022/05/18 23:05:20;;;;;;;4.07;2.50;;;;;;;;;;10347287;28;20054;-76
2022/05/18 23:10:23;;;;;;;4.55;2.78;;;;;;;;;;10355449;28;20488;-77
2022/05/18 23:15:26;;;;;;;4.50;2.70;;;;;;;;;;10362548;28;20765;-78
2022/05/18 23:20:32;;;;;;;5.25;2.42;;;;;;;;;;10347642;28;20474;-76
2022/05/18 23:25:35;;;;;;;6.38;2.83;;;;;;;;;;10356206;28;20071;-75
2022/05/18 23:30:40;;;;;;;3.67;2.65;;;;;;;;;;10341609;28;20399;-75
2022/05/18 23:35:42;;;;;;;;;;;;;;;;;;10367718;28;20194;-75
2022/05/18 23:40:46;;;;;;;7.95;3.03;;;;;;;;;;10351812;28;20322;-76
2022/05/18 23:45:49;;;;;;;4.20;2.45;;;;;;;;;;10360536;28;20132;-75
2022/05/18 23:56:18;;;;;;;4.13;1.73;;;;;;;;;;10360171;28;20099;-75
